sensor_id;sensor_type;location;lat;lon;timestamp;temperature;humidity
44435;DHT22;30138;20.964;105.830;2022-07-24T00:01:59;28.50;99.90
44435;DHT22;30138;20.964;105.830;2022-07-24T00:07:05;28.60;99.90
44435;DHT22;30138;20.964;105.830;2022-07-24T00:12:11;28.60;99.90
44435;DHT22;30138;20.964;105.830;2022-07-24T00:17:19;28.70;99.90
44435;DHT22;30138;20.964;105.830;2022-07-24T00:22:25;28.50;96.20
44435;DHT22;30138;20.964;105.830;2022-07-24T00:27:32;28.40;99.40
44435;DHT22;30138;20.964;105.830;2022-07-24T00:32:40;28.40;99.90
44435;DHT22;30138;20.964;105.830;2022-07-24T00:37:46;28.40;99.90
44435;DHT22;30138;20.964;105.830;2022-07-24T00:42:53;28.50;99.90
44435;DHT22;30138;20.964;105.830;2022-07-24T00:48:00;28.50;99.90
44435;DHT22;30138;20.964;105.830;2022-07-24T00:53:08;28.60;99.90
44435;DHT22;30138;20.964;105.830;2022-07-24T00:58:14;28.70;99.90
44435;DHT22;30138;20.964;105.830;2022-07-24T01:03:22;28.80;99.90
44435;DHT22;30138;20.964;105.830;2022-07-24T01:08:28;28.60;98.70
44435;DHT22;30138;20.964;105.830;2022-07-24T01:13:35;28.50;99.00
44435;DHT22;30138;20.964;105.830;2022-07-24T01:18:43;28.50;99.90
44435;DHT22;30138;20.964;105.830;2022-07-24T01:23:51;28.60;99.90
44435;DHT22;30138;20.964;105.830;2022-07-24T01:28:57;28.60;99.90
44435;DHT22;30138;20.964;105.830;2022-07-24T01:34:04;28.70;99.90
44435;DHT22;30138;20.964;105.830;2022-07-24T01:39:13;28.70;99.90
44435;DHT22;30138;20.964;105.830;2022-07-24T01:44:20;28.70;99.90
44435;DHT22;30138;20.964;105.830;2022-07-24T01:49:26;28.50;95.90
44435;DHT22;30138;20.964;105.830;2022-07-24T01:54:34;28.50;99.90
44435;DHT22;30138;20.964;105.830;2022-07-24T01:59:43;28.50;99.90
44435;DHT22;30138;20.964;105.830;2022-07-24T02:04:49;28.60;99.90
44435;DHT22;30138;20.964;105.830;2022-07-24T02:09:58;28.50;99.10
44435;DHT22;30138;20.964;105.830;2022-07-24T02:15:05;28.30;90.10
44435;DHT22;30138;20.964;105.830;2022-07-24T02:20:12;28.30;95.70
44435;DHT22;30138;20.964;105.830;2022-07-24T02:25:22;28.30;93.50
44435;DHT22;30138;20.964;105.830;2022-07-24T02:30:28;28.10;87.00
44435;DHT22;30138;20.964;105.830;2022-07-24T02:35:35;28.10;94.40
44435;DHT22;30138;20.964;105.830;2022-07-24T02:40:42;28.10;92.00
44435;DHT22;30138;20.964;105.830;2022-07-24T02:45:49;28.10;92.10
44435;DHT22;30138;20.964;105.830;2022-07-24T02:50:55;28.10;93.80
44435;DHT22;30138;20.964;105.830;2022-07-24T03:01:12;27.80;79.30
44435;DHT22;30138;20.964;105.830;2022-07-24T03:06:18;27.60;75.60
44435;DHT22;30138;20.964;105.830;2022-07-24T03:11:24;27.70;89.70
44435;DHT22;30138;20.964;105.830;2022-07-24T03:16:32;27.50;77.80
44435;DHT22;30138;20.964;105.830;2022-07-24T03:21:39;27.50;76.10
44435;DHT22;30138;20.964;105.830;2022-07-24T03:26:45;27.50;80.20
44435;DHT22;30138;20.964;105.830;2022-07-24T03:31:53;27.40;73.00
44435;DHT22;30138;20.964;105.830;2022-07-24T03:36:59;27.20;67.00
44435;DHT22;30138;20.964;105.830;2022-07-24T03:42:05;27.00;62.00
44435;DHT22;30138;20.964;105.830;2022-07-24T03:47:12;26.90;59.50
44435;DHT22;30138;20.964;105.830;2022-07-24T03:52:18;26.70;57.90
44435;DHT22;30138;20.964;105.830;2022-07-24T03:57:24;26.60;56.90
44435;DHT22;30138;20.964;105.830;2022-07-24T04:02:32;26.50;56.10
44435;DHT22;30138;20.964;105.830;2022-07-24T04:07:39;26.40;55.30
44435;DHT22;30138;20.964;105.830;2022-07-24T04:12:45;26.30;54.60
44435;DHT22;30138;20.964;105.830;2022-07-24T04:17:53;26.20;54.40
44435;DHT22;30138;20.964;105.830;2022-07-24T04:22:59;26.20;54.10
44435;DHT22;30138;20.964;105.830;2022-07-24T04:28:06;26.40;75.40
44435;DHT22;30138;20.964;105.830;2022-07-24T04:33:14;26.70;82.50
44435;DHT22;30138;20.964;105.830;2022-07-24T04:38:20;26.90;82.60
44435;DHT22;30138;20.964;105.830;2022-07-24T04:43:28;27.00;82.50
44435;DHT22;30138;20.964;105.830;2022-07-24T04:48:36;27.20;82.00
44435;DHT22;30138;20.964;105.830;2022-07-24T04:53:44;27.30;82.30
44435;DHT22;30138;20.964;105.830;2022-07-24T04:58:53;27.40;81.30
44435;DHT22;30138;20.964;105.830;2022-07-24T05:04:01;27.50;80.60
44435;DHT22;30138;20.964;105.830;2022-07-24T05:09:07;27.50;80.00
44435;DHT22;30138;20.964;105.830;2022-07-24T05:14:13;27.60;79.60
44435;DHT22;30138;20.964;105.830;2022-07-24T05:19:21;27.60;78.60
44435;DHT22;30138;20.964;105.830;2022-07-24T05:24:27;27.70;78.30
44435;DHT22;30138;20.964;105.830;2022-07-24T05:29:33;27.70;77.80
44435;DHT22;30138;20.964;105.830;2022-07-24T05:34:41;27.70;77.20
44435;DHT22;30138;20.964;105.830;2022-07-24T05:39:47;27.60;71.20
44435;DHT22;30138;20.964;105.830;2022-07-24T05:44:53;27.50;64.00
44435;DHT22;30138;20.964;105.830;2022-07-24T05:50:01;27.30;59.40
44435;DHT22;30138;20.964;105.830;2022-07-24T05:55:08;27.10;57.10
44435;DHT22;30138;20.964;105.830;2022-07-24T06:00:16;27.00;55.60
44435;DHT22;30138;20.964;105.830;2022-07-24T06:05:25;26.90;54.50
44435;DHT22;30138;20.964;105.830;2022-07-24T06:10:31;26.70;53.30
44435;DHT22;30138;20.964;105.830;2022-07-24T06:15:38;26.60;52.80
44435;DHT22;30138;20.964;105.830;2022-07-24T06:20:45;26.50;52.50
44435;DHT22;30138;20.964;105.830;2022-07-24T06:25:51;26.40;51.80
44435;DHT22;30138;20.964;105.830;2022-07-24T06:30:57;26.30;51.30
44435;DHT22;30138;20.964;105.830;2022-07-24T06:36:06;26.20;50.70
44435;DHT22;30138;20.964;105.830;2022-07-24T06:41:13;26.20;50.30
44435;DHT22;30138;20.964;105.830;2022-07-24T06:46:20;26.10;50.00
44435;DHT22;30138;20.964;105.830;2022-07-24T06:51:27;26.00;49.70
44435;DHT22;30138;20.964;105.830;2022-07-24T06:56:33;25.90;49.60
44435;DHT22;30138;20.964;105.830;2022-07-24T07:01:39;25.90;49.30
44435;DHT22;30138;20.964;105.830;2022-07-24T07:06:48;25.80;49.20
44435;DHT22;30138;20.964;105.830;2022-07-24T07:11:54;25.80;49.00
44435;DHT22;30138;20.964;105.830;2022-07-24T07:17:00;25.70;48.70
44435;DHT22;30138;20.964;105.830;2022-07-24T07:22:08;25.70;48.50
44435;DHT22;30138;20.964;105.830;2022-07-24T07:27:14;25.70;48.60
44435;DHT22;30138;20.964;105.830;2022-07-24T07:32:19;25.70;48.60
44435;DHT22;30138;20.964;105.830;2022-07-24T07:37:27;25.60;48.60
44435;DHT22;30138;20.964;105.830;2022-07-24T07:42:34;25.60;48.50
44435;DHT22;30138;20.964;105.830;2022-07-24T07:47:40;25.60;48.40
44435;DHT22;30138;20.964;105.830;2022-07-24T07:52:50;25.50;48.20
44435;DHT22;30138;20.964;105.830;2022-07-24T07:57:57;25.50;48.10
44435;DHT22;30138;20.964;105.830;2022-07-24T08:03:03;25.50;48.20
44435;DHT22;30138;20.964;105.830;2022-07-24T08:08:11;25.50;48.10
44435;DHT22;30138;20.964;105.830;2022-07-24T08:13:17;25.50;48.10
44435;DHT22;30138;20.964;105.830;2022-07-24T08:18:24;25.50;48.00
44435;DHT22;30138;20.964;105.830;2022-07-24T08:23:32;25.50;48.10
44435;DHT22;30138;20.964;105.830;2022-07-24T08:28:38;25.50;48.00
44435;DHT22;30138;20.964;105.830;2022-07-24T08:33:44;25.50;47.80
44435;DHT22;30138;20.964;105.830;2022-07-24T08:38:51;25.40;47.80
44435;DHT22;30138;20.964;105.830;2022-07-24T08:43:57;25.50;47.90
44435;DHT22;30138;20.964;105.830;2022-07-24T08:49:04;25.50;48.80
44435;DHT22;30138;20.964;105.830;2022-07-24T08:54:13;25.50;48.90
44435;DHT22;30138;20.964;105.830;2022-07-24T08:59:20;25.50;48.50
44435;DHT22;30138;20.964;105.830;2022-07-24T09:05:29;25.50;48.30
44435;DHT22;30138;20.964;105.830;2022-07-24T09:10:39;25.70;63.50
44435;DHT22;30138;20.964;105.830;2022-07-24T09:15:46;26.10;75.10
44435;DHT22;30138;20.964;105.830;2022-07-24T09:20:55;26.20;71.80
44435;DHT22;30138;20.964;105.830;2022-07-24T09:26:02;26.20;64.60
44435;DHT22;30138;20.964;105.830;2022-07-24T09:31:08;26.20;60.50
44435;DHT22;30138;20.964;105.830;2022-07-24T09:36:17;26.10;56.20
44435;DHT22;30138;20.964;105.830;2022-07-24T09:41:24;26.10;54.80
44435;DHT22;30138;20.964;105.830;2022-07-24T09:46:30;25.90;52.00
44435;DHT22;30138;20.964;105.830;2022-07-24T09:51:38;25.90;50.20
44435;DHT22;30138;20.964;105.830;2022-07-24T09:56:45;25.80;49.00
44435;DHT22;30138;20.964;105.830;2022-07-24T10:01:53;25.70;48.20
44435;DHT22;30138;20.964;105.830;2022-07-24T10:07:04;25.60;47.50
44435;DHT22;30138;20.964;105.830;2022-07-24T10:12:18;25.50;47.00
44435;DHT22;30138;20.964;105.830;2022-07-24T10:17:34;25.50;46.90
44435;DHT22;30138;20.964;105.830;2022-07-24T10:23:01;25.40;46.80
44435;DHT22;30138;20.964;105.830;2022-07-24T10:28:09;25.40;46.90
44435;DHT22;30138;20.964;105.830;2022-07-24T10:33:17;25.30;46.50
44435;DHT22;30138;20.964;105.830;2022-07-24T10:38:36;25.40;51.60
44435;DHT22;30138;20.964;105.830;2022-07-24T10:44:12;25.70;75.60
44435;DHT22;30138;20.964;105.830;2022-07-24T10:49:34;26.00;75.30
44435;DHT22;30138;20.964;105.830;2022-07-24T10:55:28;26.40;75.30
44435;DHT22;30138;20.964;105.830;2022-07-24T11:00:37;26.70;73.30
44435;DHT22;30138;20.964;105.830;2022-07-24T11:06:03;27.10;73.90
44435;DHT22;30138;20.964;105.830;2022-07-24T11:11:18;27.30;74.00
44435;DHT22;30138;20.964;105.830;2022-07-24T11:16:31;27.50;73.40
44435;DHT22;30138;20.964;105.830;2022-07-24T11:21:37;27.80;76.30
44435;DHT22;30138;20.964;105.830;2022-07-24T11:26:50;28.00;75.30
44435;DHT22;30138;20.964;105.830;2022-07-24T11:31:58;28.10;75.70
44435;DHT22;30138;20.964;105.830;2022-07-24T11:37:05;28.30;75.90
44435;DHT22;30138;20.964;105.830;2022-07-24T11:42:15;28.40;76.00
44435;DHT22;30138;20.964;105.830;2022-07-24T11:47:22;28.50;76.40
44435;DHT22;30138;20.964;105.830;2022-07-24T11:52:30;28.70;76.70
44435;DHT22;30138;20.964;105.830;2022-07-24T11:57:40;28.80;77.00
44435;DHT22;30138;20.964;105.830;2022-07-24T12:02:50;28.90;77.20
44435;DHT22;30138;20.964;105.830;2022-07-24T12:07:58;28.90;77.50
44435;DHT22;30138;20.964;105.830;2022-07-24T12:13:06;29.00;77.80
44435;DHT22;30138;20.964;105.830;2022-07-24T12:18:12;29.10;78.40
44435;DHT22;30138;20.964;105.830;2022-07-24T12:23:19;29.40;95.40
44435;DHT22;30138;20.964;105.830;2022-07-24T12:28:26;29.60;98.90
44435;DHT22;30138;20.964;105.830;2022-07-24T12:33:32;29.80;99.90
44435;DHT22;30138;20.964;105.830;2022-07-24T12:38:40;30.00;99.90
44435;DHT22;30138;20.964;105.830;2022-07-24T12:43:48;30.10;99.90
44435;DHT22;30138;20.964;105.830;2022-07-24T12:48:59;30.20;99.90
44435;DHT22;30138;20.964;105.830;2022-07-24T12:54:06;30.30;99.90
44435;DHT22;30138;20.964;105.830;2022-07-24T12:59:24;30.40;99.90
44435;DHT22;30138;20.964;105.830;2022-07-24T13:04:39;30.40;99.90
44435;DHT22;30138;20.964;105.830;2022-07-24T13:09:46;30.50;99.90
44435;DHT22;30138;20.964;105.830;2022-07-24T13:14:54;30.60;99.90
44435;DHT22;30138;20.964;105.830;2022-07-24T13:20:01;30.60;99.90
44435;DHT22;30138;20.964;105.830;2022-07-24T13:25:10;30.70;99.90
44435;DHT22;30138;20.964;105.830;2022-07-24T13:30:18;30.80;99.90
44435;DHT22;30138;20.964;105.830;2022-07-24T13:35:26;30.80;99.90
44435;DHT22;30138;20.964;105.830;2022-07-24T13:40:32;30.80;99.90
44435;DHT22;30138;20.964;105.830;2022-07-24T13:45:39;30.90;99.90
44435;DHT22;30138;20.964;105.830;2022-07-24T13:50:46;30.90;99.90
44435;DHT22;30138;20.964;105.830;2022-07-24T13:55:52;30.90;99.90
44435;DHT22;30138;20.964;105.830;2022-07-24T14:01:00;30.90;99.90
44435;DHT22;30138;20.964;105.830;2022-07-24T14:06:08;30.90;99.90
44435;DHT22;30138;20.964;105.830;2022-07-24T14:11:14;31.00;99.90
44435;DHT22;30138;20.964;105.830;2022-07-24T14:16:22;31.00;99.90
44435;DHT22;30138;20.964;105.830;2022-07-24T14:21:28;31.00;99.90
44435;DHT22;30138;20.964;105.830;2022-07-24T14:26:36;31.00;99.90
44435;DHT22;30138;20.964;105.830;2022-07-24T14:31:45;31.00;99.90
44435;DHT22;30138;20.964;105.830;2022-07-24T14:36:51;31.10;99.90
44435;DHT22;30138;20.964;105.830;2022-07-24T14:41:58;31.10;99.90
44435;DHT22;30138;20.964;105.830;2022-07-24T14:47:05;31.10;99.90
44435;DHT22;30138;20.964;105.830;2022-07-24T14:52:12;31.10;99.90
44435;DHT22;30138;20.964;105.830;2022-07-24T14:57:20;31.10;99.90
44435;DHT22;30138;20.964;105.830;2022-07-24T15:02:28;31.10;99.90
44435;DHT22;30138;20.964;105.830;2022-07-24T15:07:34;31.10;99.90
44435;DHT22;30138;20.964;105.830;2022-07-24T15:12:40;31.10;99.90
44435;DHT22;30138;20.964;105.830;2022-07-24T15:17:47;31.10;99.90
44435;DHT22;30138;20.964;105.830;2022-07-24T15:22:53;31.10;99.90
44435;DHT22;30138;20.964;105.830;2022-07-24T15:27:59;31.10;99.90
44435;DHT22;30138;20.964;105.830;2022-07-24T15:33:07;31.20;99.90
44435;DHT22;30138;20.964;105.830;2022-07-24T15:38:13;31.20;99.90
44435;DHT22;30138;20.964;105.830;2022-07-24T15:43:19;31.20;99.90
44435;DHT22;30138;20.964;105.830;2022-07-24T15:48:27;31.10;99.90
44435;DHT22;30138;20.964;105.830;2022-07-24T15:53:33;31.10;99.90
44435;DHT22;30138;20.964;105.830;2022-07-24T15:58:39;31.20;99.90
44435;DHT22;30138;20.964;105.830;2022-07-24T16:03:47;31.20;99.90
44435;DHT22;30138;20.964;105.830;2022-07-24T16:08:54;31.30;99.90
44435;DHT22;30138;20.964;105.830;2022-07-24T16:14:00;31.30;99.90
44435;DHT22;30138;20.964;105.830;2022-07-24T16:19:08;31.30;99.90
44435;DHT22;30138;20.964;105.830;2022-07-24T16:24:16;31.30;99.90
44435;DHT22;30138;20.964;105.830;2022-07-24T16:29:22;31.30;99.90
44435;DHT22;30138;20.964;105.830;2022-07-24T16:34:29;31.30;99.90
44435;DHT22;30138;20.964;105.830;2022-07-24T16:39:36;31.30;99.90
44435;DHT22;30138;20.964;105.830;2022-07-24T16:44:43;31.30;99.90
44435;DHT22;30138;20.964;105.830;2022-07-24T16:49:50;31.30;99.90
44435;DHT22;30138;20.964;105.830;2022-07-24T16:54:56;31.30;99.90
44435;DHT22;30138;20.964;105.830;2022-07-24T17:00:03;31.30;99.90
44435;DHT22;30138;20.964;105.830;2022-07-24T17:05:13;31.30;99.90
44435;DHT22;30138;20.964;105.830;2022-07-24T17:10:20;31.30;99.90
44435;DHT22;30138;20.964;105.830;2022-07-24T17:15:27;31.30;99.90
44435;DHT22;30138;20.964;105.830;2022-07-24T17:20:39;31.30;99.90
44435;DHT22;30138;20.964;105.830;2022-07-24T17:25:45;31.30;99.90
44435;DHT22;30138;20.964;105.830;2022-07-24T17:30:50;31.30;99.90
44435;DHT22;30138;20.964;105.830;2022-07-24T17:35:58;31.30;99.90
44435;DHT22;30138;20.964;105.830;2022-07-24T17:41:05;31.30;99.90
44435;DHT22;30138;20.964;105.830;2022-07-24T17:46:12;31.30;99.90
44435;DHT22;30138;20.964;105.830;2022-07-24T17:51:20;31.40;99.90
44435;DHT22;30138;20.964;105.830;2022-07-24T17:56:26;31.30;99.90
44435;DHT22;30138;20.964;105.830;2022-07-24T18:01:32;31.40;99.90
44435;DHT22;30138;20.964;105.830;2022-07-24T18:06:41;31.40;99.90
44435;DHT22;30138;20.964;105.830;2022-07-24T18:11:47;31.30;99.90
44435;DHT22;30138;20.964;105.830;2022-07-24T18:16:53;31.30;99.90
44435;DHT22;30138;20.964;105.830;2022-07-24T18:22:01;31.30;99.90
44435;DHT22;30138;20.964;105.830;2022-07-24T18:27:07;31.40;99.90
44435;DHT22;30138;20.964;105.830;2022-07-24T18:32:13;31.40;99.90
44435;DHT22;30138;20.964;105.830;2022-07-24T18:37:20;31.40;99.90
44435;DHT22;30138;20.964;105.830;2022-07-24T18:42:26;31.40;99.90
44435;DHT22;30138;20.964;105.830;2022-07-24T18:47:32;31.40;99.90
44435;DHT22;30138;20.964;105.830;2022-07-24T18:52:41;31.40;99.90
44435;DHT22;30138;20.964;105.830;2022-07-24T18:57:47;31.40;99.90
44435;DHT22;30138;20.964;105.830;2022-07-24T19:02:53;31.40;99.90
44435;DHT22;30138;20.964;105.830;2022-07-24T19:08:00;31.30;99.90
44435;DHT22;30138;20.964;105.830;2022-07-24T19:13:06;31.40;99.90
44435;DHT22;30138;20.964;105.830;2022-07-24T19:18:13;31.40;99.90
44435;DHT22;30138;20.964;105.830;2022-07-24T19:23:21;31.40;99.90
44435;DHT22;30138;20.964;105.830;2022-07-24T19:28:27;31.40;99.90
44435;DHT22;30138;20.964;105.830;2022-07-24T19:33:33;31.40;99.90
44435;DHT22;30138;20.964;105.830;2022-07-24T19:38:41;31.40;99.90
44435;DHT22;30138;20.964;105.830;2022-07-24T19:43:47;31.30;99.90
44435;DHT22;30138;20.964;105.830;2022-07-24T19:48:53;31.40;99.90
44435;DHT22;30138;20.964;105.830;2022-07-24T19:54:01;31.40;99.90
44435;DHT22;30138;20.964;105.830;2022-07-24T19:59:07;31.30;99.90
44435;DHT22;30138;20.964;105.830;2022-07-24T20:04:13;31.40;99.90
44435;DHT22;30138;20.964;105.830;2022-07-24T20:09:21;31.40;99.90
44435;DHT22;30138;20.964;105.830;2022-07-24T20:14:26;31.30;99.90
44435;DHT22;30138;20.964;105.830;2022-07-24T20:19:32;31.30;99.90
44435;DHT22;30138;20.964;105.830;2022-07-24T20:24:41;31.30;99.90
44435;DHT22;30138;20.964;105.830;2022-07-24T20:29:47;31.30;99.90
44435;DHT22;30138;20.964;105.830;2022-07-24T20:34:54;31.30;99.90
44435;DHT22;30138;20.964;105.830;2022-07-24T20:40:02;31.30;99.90
44435;DHT22;30138;20.964;105.830;2022-07-24T20:45:11;31.30;99.90
44435;DHT22;30138;20.964;105.830;2022-07-24T20:50:18;31.30;99.90
44435;DHT22;30138;20.964;105.830;2022-07-24T20:55:26;31.30;99.90
44435;DHT22;30138;20.964;105.830;2022-07-24T21:00:32;31.30;99.90
44435;DHT22;30138;20.964;105.830;2022-07-24T21:05:38;31.30;99.90
44435;DHT22;30138;20.964;105.830;2022-07-24T21:10:47;31.30;99.90
44435;DHT22;30138;20.964;105.830;2022-07-24T21:15:53;31.30;99.90
44435;DHT22;30138;20.964;105.830;2022-07-24T21:21:00;31.30;99.90
44435;DHT22;30138;20.964;105.830;2022-07-24T21:26:07;31.30;99.90
44435;DHT22;30138;20.964;105.830;2022-07-24T21:31:13;31.30;99.90
44435;DHT22;30138;20.964;105.830;2022-07-24T21:36:19;31.20;99.90
44435;DHT22;30138;20.964;105.830;2022-07-24T21:41:27;31.20;99.90
44435;DHT22;30138;20.964;105.830;2022-07-24T21:46:33;31.20;99.90
44435;DHT22;30138;20.964;105.830;2022-07-24T21:51:39;31.20;99.90
44435;DHT22;30138;20.964;105.830;2022-07-24T21:56:48;31.20;99.90
44435;DHT22;30138;20.964;105.830;2022-07-24T22:01:53;31.20;99.90
44435;DHT22;30138;20.964;105.830;2022-07-24T22:06:59;31.20;99.90
44435;DHT22;30138;20.964;105.830;2022-07-24T22:12:08;31.20;99.90
44435;DHT22;30138;20.964;105.830;2022-07-24T22:17:14;31.20;99.90
44435;DHT22;30138;20.964;105.830;2022-07-24T22:22:20;31.20;99.90
44435;DHT22;30138;20.964;105.830;2022-07-24T22:27:27;31.20;99.90
44435;DHT22;30138;20.964;105.830;2022-07-24T22:32:33;31.20;99.90
44435;DHT22;30138;20.964;105.830;2022-07-24T22:37:40;31.20;99.90
44435;DHT22;30138;20.964;105.830;2022-07-24T22:42:49;31.10;99.90
44435;DHT22;30138;20.964;105.830;2022-07-24T22:47:57;31.20;99.90
44435;DHT22;30138;20.964;105.830;2022-07-24T22:53:03;31.10;99.90
44435;DHT22;30138;20.964;105.830;2022-07-24T22:58:12;31.10;99.90
44435;DHT22;30138;20.964;105.830;2022-07-24T23:03:19;31.10;99.90
44435;DHT22;30138;20.964;105.830;2022-07-24T23:08:25;31.10;99.90
44435;DHT22;30138;20.964;105.830;2022-07-24T23:13:33;31.10;99.90
44435;DHT22;30138;20.964;105.830;2022-07-24T23:18:39;31.10;99.90
44435;DHT22;30138;20.964;105.830;2022-07-24T23:23:45;31.10;99.90
44435;DHT22;30138;20.964;105.830;2022-07-24T23:28:53;31.10;99.90
44435;DHT22;30138;20.964;105.830;2022-07-24T23:33:59;31.10;99.90
44435;DHT22;30138;20.964;105.830;2022-07-24T23:39:05;31.10;99.90
44435;DHT22;30138;20.964;105.830;2022-07-24T23:44:13;31.10;99.90
44435;DHT22;30138;20.964;105.830;2022-07-24T23:49:19;31.10;99.90
44435;DHT22;30138;20.964;105.830;2022-07-24T23:54:25;31.10;99.90
44435;DHT22;30138;20.964;105.830;2022-07-24T23:59:34;31.10;99.90
